sensor_id;sensor_type;location;lat;lon;timestamp;temperature;humidity
66594;DHT22;53450;42.584;23.366;2023-07-20T00:00:26;19.87;74.92
66594;DHT22;53450;42.584;23.366;2023-07-20T00:02:51;19.97;73.06
66594;DHT22;53450;42.584;23.366;2023-07-20T00:05:17;19.95;72.67
66594;DHT22;53450;42.584;23.366;2023-07-20T00:07:50;19.98;73.20
66594;DHT22;53450;42.584;23.366;2023-07-20T00:10:17;19.98;72.47
66594;DHT22;53450;42.584;23.366;2023-07-20T00:12:43;20.04;73.10
66594;DHT22;53450;42.584;23.366;2023-07-20T00:15:13;19.90;72.28
66594;DHT22;53450;42.584;23.366;2023-07-20T00:17:39;19.83;71.97
66594;DHT22;53450;42.584;23.366;2023-07-20T00:20:07;19.74;72.14
66594;DHT22;53450;42.584;23.366;2023-07-20T00:22:35;19.74;74.54
66594;DHT22;53450;42.584;23.366;2023-07-20T00:25:01;19.73;74.13
66594;DHT22;53450;42.584;23.366;2023-07-20T00:27:27;19.81;74.10
66594;DHT22;53450;42.584;23.366;2023-07-20T00:29:54;19.86;72.47
66594;DHT22;53450;42.584;23.366;2023-07-20T00:32:20;19.84;72.23
66594;DHT22;53450;42.584;23.366;2023-07-20T00:34:45;19.69;72.32
66594;DHT22;53450;42.584;23.366;2023-07-20T00:37:11;19.53;72.40
66594;DHT22;53450;42.584;23.366;2023-07-20T00:39:37;19.57;73.17
66594;DHT22;53450;42.584;23.366;2023-07-20T00:42:04;19.65;73.39
66594;DHT22;53450;42.584;23.366;2023-07-20T00:44:29;19.73;74.40
66594;DHT22;53450;42.584;23.366;2023-07-20T00:46:55;19.71;74.57
66594;DHT22;53450;42.584;23.366;2023-07-20T00:49:21;19.71;73.47
66594;DHT22;53450;42.584;23.366;2023-07-20T00:51:48;19.78;74.04
66594;DHT22;53450;42.584;23.366;2023-07-20T00:54:15;19.73;74.49
66594;DHT22;53450;42.584;23.366;2023-07-20T00:56:42;19.67;74.41
66594;DHT22;53450;42.584;23.366;2023-07-20T00:59:09;19.63;74.74
66594;DHT22;53450;42.584;23.366;2023-07-20T01:01:34;19.59;75.23
66594;DHT22;53450;42.584;23.366;2023-07-20T01:04:00;19.49;75.37
66594;DHT22;53450;42.584;23.366;2023-07-20T01:09:40;19.49;75.45
66594;DHT22;53450;42.584;23.366;2023-07-20T01:12:12;19.49;74.60
66594;DHT22;53450;42.584;23.366;2023-07-20T01:14:38;19.52;74.92
66594;DHT22;53450;42.584;23.366;2023-07-20T01:17:04;19.52;73.68
66594;DHT22;53450;42.584;23.366;2023-07-20T01:19:30;19.59;72.90
66594;DHT22;53450;42.584;23.366;2023-07-20T01:25:09;19.70;72.05
66594;DHT22;53450;42.584;23.366;2023-07-20T01:30:45;19.42;72.18
66594;DHT22;53450;42.584;23.366;2023-07-20T01:33:40;19.15;74.19
66594;DHT22;53450;42.584;23.366;2023-07-20T01:36:09;19.15;74.71
66594;DHT22;53450;42.584;23.366;2023-07-20T01:38:36;19.26;74.88
66594;DHT22;53450;42.584;23.366;2023-07-20T01:41:02;19.20;74.52
66594;DHT22;53450;42.584;23.366;2023-07-20T01:43:28;19.25;75.08
66594;DHT22;53450;42.584;23.366;2023-07-20T01:45:54;19.22;75.13
66594;DHT22;53450;42.584;23.366;2023-07-20T01:48:19;19.15;75.22
66594;DHT22;53450;42.584;23.366;2023-07-20T01:50:45;18.92;75.84
66594;DHT22;53450;42.584;23.366;2023-07-20T01:53:11;18.85;75.77
66594;DHT22;53450;42.584;23.366;2023-07-20T01:55:37;18.84;76.24
66594;DHT22;53450;42.584;23.366;2023-07-20T01:58:02;18.89;77.08
66594;DHT22;53450;42.584;23.366;2023-07-20T02:00:29;18.88;77.05
66594;DHT22;53450;42.584;23.366;2023-07-20T02:02:55;18.88;76.81
66594;DHT22;53450;42.584;23.366;2023-07-20T02:05:21;18.89;77.14
66594;DHT22;53450;42.584;23.366;2023-07-20T02:07:47;18.84;77.29
66594;DHT22;53450;42.584;23.366;2023-07-20T02:10:19;18.81;77.55
66594;DHT22;53450;42.584;23.366;2023-07-20T02:12:45;18.64;77.05
66594;DHT22;53450;42.584;23.366;2023-07-20T02:15:10;18.54;76.81
66594;DHT22;53450;42.584;23.366;2023-07-20T02:17:36;18.43;77.44
66594;DHT22;53450;42.584;23.366;2023-07-20T02:20:03;18.36;77.04
66594;DHT22;53450;42.584;23.366;2023-07-20T02:22:28;18.41;77.62
66594;DHT22;53450;42.584;23.366;2023-07-20T02:24:54;18.44;77.44
66594;DHT22;53450;42.584;23.366;2023-07-20T02:27:20;18.51;77.23
66594;DHT22;53450;42.584;23.366;2023-07-20T02:29:46;18.47;77.12
66594;DHT22;53450;42.584;23.366;2023-07-20T02:32:11;18.36;76.83
66594;DHT22;53450;42.584;23.366;2023-07-20T02:34:37;18.26;77.31
66594;DHT22;53450;42.584;23.366;2023-07-20T02:37:04;18.20;77.17
66594;DHT22;53450;42.584;23.366;2023-07-20T02:39:30;18.17;77.72
66594;DHT22;53450;42.584;23.366;2023-07-20T02:41:55;18.20;78.12
66594;DHT22;53450;42.584;23.366;2023-07-20T02:44:21;18.22;77.42
66594;DHT22;53450;42.584;23.366;2023-07-20T02:46:47;18.20;78.16
66594;DHT22;53450;42.584;23.366;2023-07-20T02:49:15;18.25;77.61
66594;DHT22;53450;42.584;23.366;2023-07-20T02:51:42;18.19;76.63
66594;DHT22;53450;42.584;23.366;2023-07-20T02:54:07;18.13;76.10
66594;DHT22;53450;42.584;23.366;2023-07-20T02:56:33;18.09;76.05
66594;DHT22;53450;42.584;23.366;2023-07-20T02:59:01;18.09;75.75
66594;DHT22;53450;42.584;23.366;2023-07-20T03:01:27;18.06;75.96
66594;DHT22;53450;42.584;23.366;2023-07-20T03:03:55;18.09;76.48
66594;DHT22;53450;42.584;23.366;2023-07-20T03:06:20;18.00;75.50
66594;DHT22;53450;42.584;23.366;2023-07-20T03:08:46;17.96;76.72
66594;DHT22;53450;42.584;23.366;2023-07-20T03:11:18;17.95;77.18
66594;DHT22;53450;42.584;23.366;2023-07-20T03:13:44;17.92;76.97
66594;DHT22;53450;42.584;23.366;2023-07-20T03:16:12;17.93;76.97
66594;DHT22;53450;42.584;23.366;2023-07-20T03:18:38;17.93;77.34
66594;DHT22;53450;42.584;23.366;2023-07-20T03:21:08;17.98;76.87
66594;DHT22;53450;42.584;23.366;2023-07-20T03:23:34;17.93;76.83
66594;DHT22;53450;42.584;23.366;2023-07-20T03:26:03;18.00;76.75
66594;DHT22;53450;42.584;23.366;2023-07-20T03:28:31;18.08;76.78
66594;DHT22;53450;42.584;23.366;2023-07-20T03:30:57;18.20;76.95
66594;DHT22;53450;42.584;23.366;2023-07-20T03:33:28;18.27;77.00
66594;DHT22;53450;42.584;23.366;2023-07-20T03:35:56;18.33;76.75
66594;DHT22;53450;42.584;23.366;2023-07-20T03:38:22;18.34;76.13
66594;DHT22;53450;42.584;23.366;2023-07-20T03:43:17;18.40;76.02
66594;DHT22;53450;42.584;23.366;2023-07-20T03:45:43;18.47;75.01
66594;DHT22;53450;42.584;23.366;2023-07-20T03:48:11;18.58;74.30
66594;DHT22;53450;42.584;23.366;2023-07-20T03:50:38;18.81;74.12
66594;DHT22;53450;42.584;23.366;2023-07-20T03:53:03;18.94;74.53
66594;DHT22;53450;42.584;23.366;2023-07-20T03:55:29;19.07;74.61
66594;DHT22;53450;42.584;23.366;2023-07-20T03:57:55;19.25;74.00
66594;DHT22;53450;42.584;23.366;2023-07-20T04:00:20;19.35;74.73
66594;DHT22;53450;42.584;23.366;2023-07-20T04:02:46;19.37;74.87
66594;DHT22;53450;42.584;23.366;2023-07-20T04:05:12;19.45;75.25
66594;DHT22;53450;42.584;23.366;2023-07-20T04:07:37;19.50;74.40
66594;DHT22;53450;42.584;23.366;2023-07-20T04:10:03;19.62;73.71
66594;DHT22;53450;42.584;23.366;2023-07-20T04:12:29;19.73;73.77
66594;DHT22;53450;42.584;23.366;2023-07-20T04:14:54;19.83;72.95
66594;DHT22;53450;42.584;23.366;2023-07-20T04:17:20;20.39;71.51
66594;DHT22;53450;42.584;23.366;2023-07-20T04:20:11;21.61;67.70
66594;DHT22;53450;42.584;23.366;2023-07-20T04:23:02;22.72;64.12
66594;DHT22;53450;42.584;23.366;2023-07-20T04:25:29;23.56;61.53
66594;DHT22;53450;42.584;23.366;2023-07-20T04:27:54;24.10;60.01
66594;DHT22;53450;42.584;23.366;2023-07-20T04:30:21;23.59;62.11
66594;DHT22;53450;42.584;23.366;2023-07-20T04:32:51;22.61;66.26
66594;DHT22;53450;42.584;23.366;2023-07-20T04:38:21;20.84;71.25
66594;DHT22;53450;42.584;23.366;2023-07-20T04:40:51;20.94;70.91
66594;DHT22;53450;42.584;23.366;2023-07-20T04:43:18;21.08;71.54
66594;DHT22;53450;42.584;23.366;2023-07-20T04:45:44;21.11;71.18
66594;DHT22;53450;42.584;23.366;2023-07-20T04:48:12;21.14;71.79
66594;DHT22;53450;42.584;23.366;2023-07-20T04:50:41;21.26;69.65
66594;DHT22;53450;42.584;23.366;2023-07-20T04:53:08;21.24;70.03
66594;DHT22;53450;42.584;23.366;2023-07-20T04:55:37;21.23;70.76
66594;DHT22;53450;42.584;23.366;2023-07-20T04:58:03;21.34;69.47
66594;DHT22;53450;42.584;23.366;2023-07-20T05:00:32;21.26;68.33
66594;DHT22;53450;42.584;23.366;2023-07-20T05:02:57;21.11;68.27
66594;DHT22;53450;42.584;23.366;2023-07-20T05:05:23;21.20;69.72
66594;DHT22;53450;42.584;23.366;2023-07-20T05:07:49;21.33;69.31
66594;DHT22;53450;42.584;23.366;2023-07-20T05:10:15;21.34;70.90
66594;DHT22;53450;42.584;23.366;2023-07-20T05:12:41;21.45;68.29
66594;DHT22;53450;42.584;23.366;2023-07-20T05:15:06;21.26;68.93
66594;DHT22;53450;42.584;23.366;2023-07-20T05:17:33;21.17;67.54
66594;DHT22;53450;42.584;23.366;2023-07-20T05:20:00;21.21;68.41
66594;DHT22;53450;42.584;23.366;2023-07-20T05:22:28;21.21;68.56
66594;DHT22;53450;42.584;23.366;2023-07-20T05:24:53;21.21;67.96
66594;DHT22;53450;42.584;23.366;2023-07-20T05:27:21;21.19;68.99
66594;DHT22;53450;42.584;23.366;2023-07-20T05:29:47;21.42;68.64
66594;DHT22;53450;42.584;23.366;2023-07-20T05:32:13;21.45;66.83
66594;DHT22;53450;42.584;23.366;2023-07-20T05:34:38;21.52;68.11
66594;DHT22;53450;42.584;23.366;2023-07-20T05:37:10;21.77;66.55
66594;DHT22;53450;42.584;23.366;2023-07-20T05:39:35;21.72;65.18
66594;DHT22;53450;42.584;23.366;2023-07-20T05:42:01;21.89;62.80
66594;DHT22;53450;42.584;23.366;2023-07-20T05:44:29;22.08;65.16
66594;DHT22;53450;42.584;23.366;2023-07-20T05:46:55;22.02;63.75
66594;DHT22;53450;42.584;23.366;2023-07-20T05:49:20;22.24;63.30
66594;DHT22;53450;42.584;23.366;2023-07-20T05:51:48;22.33;62.36
66594;DHT22;53450;42.584;23.366;2023-07-20T05:54:14;22.47;61.28
66594;DHT22;53450;42.584;23.366;2023-07-20T05:56:39;22.67;60.19
66594;DHT22;53450;42.584;23.366;2023-07-20T05:59:05;22.92;59.83
66594;DHT22;53450;42.584;23.366;2023-07-20T06:01:31;23.07;60.49
66594;DHT22;53450;42.584;23.366;2023-07-20T06:03:56;23.11;58.91
66594;DHT22;53450;42.584;23.366;2023-07-20T06:06:22;23.16;58.29
66594;DHT22;53450;42.584;23.366;2023-07-20T06:08:48;23.25;58.47
66594;DHT22;53450;42.584;23.366;2023-07-20T06:11:13;23.47;59.06
66594;DHT22;53450;42.584;23.366;2023-07-20T06:13:39;23.38;60.65
66594;DHT22;53450;42.584;23.366;2023-07-20T06:16:12;23.15;61.24
66594;DHT22;53450;42.584;23.366;2023-07-20T06:18:37;23.29;62.71
66594;DHT22;53450;42.584;23.366;2023-07-20T06:21:03;23.49;62.21
66594;DHT22;53450;42.584;23.366;2023-07-20T06:23:29;23.49;59.66
66594;DHT22;53450;42.584;23.366;2023-07-20T06:25:55;23.62;58.88
66594;DHT22;53450;42.584;23.366;2023-07-20T06:28:20;23.78;58.18
66594;DHT22;53450;42.584;23.366;2023-07-20T06:30:46;23.88;59.77
66594;DHT22;53450;42.584;23.366;2023-07-20T06:33:12;23.88;58.41
66594;DHT22;53450;42.584;23.366;2023-07-20T06:35:37;23.92;59.71
66594;DHT22;53450;42.584;23.366;2023-07-20T06:38:06;23.88;59.29
66594;DHT22;53450;42.584;23.366;2023-07-20T06:40:33;24.04;59.75
66594;DHT22;53450;42.584;23.366;2023-07-20T06:42:59;24.15;59.09
66594;DHT22;53450;42.584;23.366;2023-07-20T06:45:24;24.21;59.00
66594;DHT22;53450;42.584;23.366;2023-07-20T06:47:53;24.36;58.88
66594;DHT22;53450;42.584;23.366;2023-07-20T06:50:18;24.54;58.97
66594;DHT22;53450;42.584;23.366;2023-07-20T06:52:44;24.69;59.52
66594;DHT22;53450;42.584;23.366;2023-07-20T06:55:09;24.59;58.76
66594;DHT22;53450;42.584;23.366;2023-07-20T06:57:35;24.62;60.24
66594;DHT22;53450;42.584;23.366;2023-07-20T07:00:01;24.76;60.29
66594;DHT22;53450;42.584;23.366;2023-07-20T07:02:29;24.94;59.43
66594;DHT22;53450;42.584;23.366;2023-07-20T07:04:55;25.09;56.30
66594;DHT22;53450;42.584;23.366;2023-07-20T07:07:21;24.99;56.63
66594;DHT22;53450;42.584;23.366;2023-07-20T07:09:47;25.16;56.86
66594;DHT22;53450;42.584;23.366;2023-07-20T07:12:13;25.33;57.39
66594;DHT22;53450;42.584;23.366;2023-07-20T07:14:39;25.33;56.75
66594;DHT22;53450;42.584;23.366;2023-07-20T07:17:06;25.23;56.25
66594;DHT22;53450;42.584;23.366;2023-07-20T07:19:32;25.02;57.81
66594;DHT22;53450;42.584;23.366;2023-07-20T07:21:58;24.80;57.54
66594;DHT22;53450;42.584;23.366;2023-07-20T07:24:23;24.54;58.65
66594;DHT22;53450;42.584;23.366;2023-07-20T07:26:49;24.63;59.94
66594;DHT22;53450;42.584;23.366;2023-07-20T07:29:15;24.51;59.07
66594;DHT22;53450;42.584;23.366;2023-07-20T07:31:43;24.66;58.81
66594;DHT22;53450;42.584;23.366;2023-07-20T07:34:09;24.61;58.97
66594;DHT22;53450;42.584;23.366;2023-07-20T07:36:34;24.59;59.70
66594;DHT22;53450;42.584;23.366;2023-07-20T07:39:00;24.76;57.98
66594;DHT22;53450;42.584;23.366;2023-07-20T07:41:28;24.71;57.63
66594;DHT22;53450;42.584;23.366;2023-07-20T07:43:53;24.77;57.62
66594;DHT22;53450;42.584;23.366;2023-07-20T07:46:19;24.94;57.78
66594;DHT22;53450;42.584;23.366;2023-07-20T07:48:44;25.14;58.18
66594;DHT22;53450;42.584;23.366;2023-07-20T07:51:10;25.22;56.14
66594;DHT22;53450;42.584;23.366;2023-07-20T07:53:36;25.27;57.15
66594;DHT22;53450;42.584;23.366;2023-07-20T07:56:03;25.13;58.06
66594;DHT22;53450;42.584;23.366;2023-07-20T07:58:29;25.23;57.99
66594;DHT22;53450;42.584;23.366;2023-07-20T08:00:54;25.23;56.71
66594;DHT22;53450;42.584;23.366;2023-07-20T08:03:20;25.37;57.08
66594;DHT22;53450;42.584;23.366;2023-07-20T08:05:47;25.55;58.19
66594;DHT22;53450;42.584;23.366;2023-07-20T08:08:12;25.54;57.09
66594;DHT22;53450;42.584;23.366;2023-07-20T08:10:38;25.62;55.86
66594;DHT22;53450;42.584;23.366;2023-07-20T08:13:03;25.70;57.07
66594;DHT22;53450;42.584;23.366;2023-07-20T08:15:29;25.62;56.19
66594;DHT22;53450;42.584;23.366;2023-07-20T08:17:55;25.62;57.82
66594;DHT22;53450;42.584;23.366;2023-07-20T08:20:20;25.85;55.98
66594;DHT22;53450;42.584;23.366;2023-07-20T08:22:54;25.75;57.20
66594;DHT22;53450;42.584;23.366;2023-07-20T08:25:21;25.55;56.76
66594;DHT22;53450;42.584;23.366;2023-07-20T08:27:46;25.52;57.61
66594;DHT22;53450;42.584;23.366;2023-07-20T08:30:15;25.41;58.79
66594;DHT22;53450;42.584;23.366;2023-07-20T08:32:41;25.38;59.33
66594;DHT22;53450;42.584;23.366;2023-07-20T08:35:07;25.35;59.70
66594;DHT22;53450;42.584;23.366;2023-07-20T08:37:32;25.23;59.83
66594;DHT22;53450;42.584;23.366;2023-07-20T08:39:58;25.12;61.01
66594;DHT22;53450;42.584;23.366;2023-07-20T08:42:27;25.02;62.09
66594;DHT22;53450;42.584;23.366;2023-07-20T08:44:53;24.99;59.78
66594;DHT22;53450;42.584;23.366;2023-07-20T08:47:20;24.71;60.16
66594;DHT22;53450;42.584;23.366;2023-07-20T08:49:49;24.47;60.60
66594;DHT22;53450;42.584;23.366;2023-07-20T08:52:15;24.25;60.03
66594;DHT22;53450;42.584;23.366;2023-07-20T08:54:40;24.18;59.57
66594;DHT22;53450;42.584;23.366;2023-07-20T08:57:06;24.32;59.90
66594;DHT22;53450;42.584;23.366;2023-07-20T08:59:34;24.44;59.57
66594;DHT22;53450;42.584;23.366;2023-07-20T09:02:02;24.61;58.54
66594;DHT22;53450;42.584;23.366;2023-07-20T09:04:30;24.71;58.06
66594;DHT22;53450;42.584;23.366;2023-07-20T09:06:56;24.85;57.49
66594;DHT22;53450;42.584;23.366;2023-07-20T09:09:22;24.77;56.31
66594;DHT22;53450;42.584;23.366;2023-07-20T09:11:51;24.76;57.28
66594;DHT22;53450;42.584;23.366;2023-07-20T09:14:17;24.86;56.52
66594;DHT22;53450;42.584;23.366;2023-07-20T09:16:53;24.73;56.51
66594;DHT22;53450;42.584;23.366;2023-07-20T09:19:48;24.77;56.01
66594;DHT22;53450;42.584;23.366;2023-07-20T09:22:18;24.86;54.74
66594;DHT22;53450;42.584;23.366;2023-07-20T09:24:44;24.71;55.20
66594;DHT22;53450;42.584;23.366;2023-07-20T09:27:10;24.87;55.29
66594;DHT22;53450;42.584;23.366;2023-07-20T09:29:50;25.02;54.71
66594;DHT22;53450;42.584;23.366;2023-07-20T09:32:20;25.30;55.42
66594;DHT22;53450;42.584;23.366;2023-07-20T09:34:46;25.23;54.42
66594;DHT22;53450;42.584;23.366;2023-07-20T09:37:12;25.28;54.24
66594;DHT22;53450;42.584;23.366;2023-07-20T09:39:46;25.60;54.16
66594;DHT22;53450;42.584;23.366;2023-07-20T09:42:15;25.62;52.74
66594;DHT22;53450;42.584;23.366;2023-07-20T09:44:44;25.52;53.02
66594;DHT22;53450;42.584;23.366;2023-07-20T09:47:10;25.65;53.18
66594;DHT22;53450;42.584;23.366;2023-07-20T09:49:42;25.72;52.15
66594;DHT22;53450;42.584;23.366;2023-07-20T09:52:33;25.86;52.51
66594;DHT22;53450;42.584;23.366;2023-07-20T09:55:25;26.12;51.74
66594;DHT22;53450;42.584;23.366;2023-07-20T09:58:16;26.10;51.36
66594;DHT22;53450;42.584;23.366;2023-07-20T10:00:43;26.32;51.18
66594;DHT22;53450;42.584;23.366;2023-07-20T10:03:14;26.65;50.59
66594;DHT22;53450;42.584;23.366;2023-07-20T10:05:54;26.94;48.90
66594;DHT22;53450;42.584;23.366;2023-07-20T10:08:24;26.74;49.51
66594;DHT22;53450;42.584;23.366;2023-07-20T10:10:55;26.65;49.03
66594;DHT22;53450;42.584;23.366;2023-07-20T10:13:26;26.74;49.04
66594;DHT22;53450;42.584;23.366;2023-07-20T10:16:02;26.86;50.57
66594;DHT22;53450;42.584;23.366;2023-07-20T10:18:49;26.76;49.10
66594;DHT22;53450;42.584;23.366;2023-07-20T10:21:22;26.64;49.61
66594;DHT22;53450;42.584;23.366;2023-07-20T10:23:51;26.54;49.27
66594;DHT22;53450;42.584;23.366;2023-07-20T10:26:17;26.73;49.04
66594;DHT22;53450;42.584;23.366;2023-07-20T10:28:42;26.71;48.69
66594;DHT22;53450;42.584;23.366;2023-07-20T10:31:11;26.53;49.02
66594;DHT22;53450;42.584;23.366;2023-07-20T10:33:37;26.74;49.37
66594;DHT22;53450;42.584;23.366;2023-07-20T10:36:04;26.87;47.99
66594;DHT22;53450;42.584;23.366;2023-07-20T10:41:37;27.01;47.97
66594;DHT22;53450;42.584;23.366;2023-07-20T10:44:08;27.29;48.08
66594;DHT22;53450;42.584;23.366;2023-07-20T10:46:44;27.39;47.74
66594;DHT22;53450;42.584;23.366;2023-07-20T10:49:11;27.50;46.97
66594;DHT22;53450;42.584;23.366;2023-07-20T10:51:48;27.53;46.74
66594;DHT22;53450;42.584;23.366;2023-07-20T10:56:49;27.48;47.20
66594;DHT22;53450;42.584;23.366;2023-07-20T11:01:56;27.52;47.57
66594;DHT22;53450;42.584;23.366;2023-07-20T11:04:38;27.39;48.55
66594;DHT22;53450;42.584;23.366;2023-07-20T11:07:06;27.56;47.60
66594;DHT22;53450;42.584;23.366;2023-07-20T11:09:36;27.31;51.68
66594;DHT22;53450;42.584;23.366;2023-07-20T11:12:17;26.83;58.73
66594;DHT22;53450;42.584;23.366;2023-07-20T11:14:52;26.84;56.34
66594;DHT22;53450;42.584;23.366;2023-07-20T11:17:19;26.88;56.56
66594;DHT22;53450;42.584;23.366;2023-07-20T11:19:48;27.11;54.56
66594;DHT22;53450;42.584;23.366;2023-07-20T11:22:17;27.36;50.72
66594;DHT22;53450;42.584;23.366;2023-07-20T11:24:43;27.69;51.05
66594;DHT22;53450;42.584;23.366;2023-07-20T11:27:08;27.67;48.67
66594;DHT22;53450;42.584;23.366;2023-07-20T11:29:35;27.60;51.31
66594;DHT22;53450;42.584;23.366;2023-07-20T11:32:02;27.83;50.86
66594;DHT22;53450;42.584;23.366;2023-07-20T11:34:32;27.71;51.23
66594;DHT22;53450;42.584;23.366;2023-07-20T11:36:58;27.43;50.56
66594;DHT22;53450;42.584;23.366;2023-07-20T11:39:28;27.50;51.93
66594;DHT22;53450;42.584;23.366;2023-07-20T11:41:57;28.01;51.44
66594;DHT22;53450;42.584;23.366;2023-07-20T11:44:25;27.97;52.82
66594;DHT22;53450;42.584;23.366;2023-07-20T11:47:20;27.87;51.57
66594;DHT22;53450;42.584;23.366;2023-07-20T11:50:11;28.00;50.43
66594;DHT22;53450;42.584;23.366;2023-07-20T11:52:40;27.82;50.33
66594;DHT22;53450;42.584;23.366;2023-07-20T11:55:06;28.14;47.40
66594;DHT22;53450;42.584;23.366;2023-07-20T11:57:41;28.54;48.24
66594;DHT22;53450;42.584;23.366;2023-07-20T12:00:44;28.91;44.96
66594;DHT22;53450;42.584;23.366;2023-07-20T12:03:12;29.19;45.55
66594;DHT22;53450;42.584;23.366;2023-07-20T12:05:38;29.50;43.52
66594;DHT22;53450;42.584;23.366;2023-07-20T12:08:04;29.49;44.43
66594;DHT22;53450;42.584;23.366;2023-07-20T12:10:32;29.60;44.54
66594;DHT22;53450;42.584;23.366;2023-07-20T12:13:02;29.77;44.24
66594;DHT22;53450;42.584;23.366;2023-07-20T12:15:30;30.09;43.91
66594;DHT22;53450;42.584;23.366;2023-07-20T12:18:00;30.26;42.95
66594;DHT22;53450;42.584;23.366;2023-07-20T12:23:05;30.26;41.00
66594;DHT22;53450;42.584;23.366;2023-07-20T12:25:40;30.53;40.52
66594;DHT22;53450;42.584;23.366;2023-07-20T12:28:09;30.39;40.87
66594;DHT22;53450;42.584;23.366;2023-07-20T12:30:38;30.20;40.88
66594;DHT22;53450;42.584;23.366;2023-07-20T12:33:04;30.56;39.65
66594;DHT22;53450;42.584;23.366;2023-07-20T12:35:31;30.92;37.73
66594;DHT22;53450;42.584;23.366;2023-07-20T12:37:57;30.88;33.99
66594;DHT22;53450;42.584;23.366;2023-07-20T12:40:23;30.81;34.60
66594;DHT22;53450;42.584;23.366;2023-07-20T12:42:51;30.61;35.16
66594;DHT22;53450;42.584;23.366;2023-07-20T12:45:17;30.41;35.84
66594;DHT22;53450;42.584;23.366;2023-07-20T12:47:45;30.50;35.20
66594;DHT22;53450;42.584;23.366;2023-07-20T12:50:10;30.29;34.73
66594;DHT22;53450;42.584;23.366;2023-07-20T12:52:37;30.41;35.74
66594;DHT22;53450;42.584;23.366;2023-07-20T12:55:08;30.25;36.34
66594;DHT22;53450;42.584;23.366;2023-07-20T12:57:35;30.18;36.93
66594;DHT22;53450;42.584;23.366;2023-07-20T13:00:04;30.25;36.39
66594;DHT22;53450;42.584;23.366;2023-07-20T13:02:32;30.29;36.40
66594;DHT22;53450;42.584;23.366;2023-07-20T13:04:58;30.33;36.09
66594;DHT22;53450;42.584;23.366;2023-07-20T13:07:49;30.15;36.71
66594;DHT22;53450;42.584;23.366;2023-07-20T13:10:40;30.02;37.22
66594;DHT22;53450;42.584;23.366;2023-07-20T13:13:06;29.95;36.63
66594;DHT22;53450;42.584;23.366;2023-07-20T13:15:40;30.16;37.49
66594;DHT22;53450;42.584;23.366;2023-07-20T13:18:06;30.29;35.38
66594;DHT22;53450;42.584;23.366;2023-07-20T13:20:34;30.33;35.81
66594;DHT22;53450;42.584;23.366;2023-07-20T13:22:59;30.32;35.72
66594;DHT22;53450;42.584;23.366;2023-07-20T13:25:25;30.59;35.62
66594;DHT22;53450;42.584;23.366;2023-07-20T13:27:51;30.78;35.29
66594;DHT22;53450;42.584;23.366;2023-07-20T13:30:16;30.84;35.48
66594;DHT22;53450;42.584;23.366;2023-07-20T13:32:45;30.84;35.29
66594;DHT22;53450;42.584;23.366;2023-07-20T13:35:12;30.73;35.24
66594;DHT22;53450;42.584;23.366;2023-07-20T13:38:02;30.88;35.33
66594;DHT22;53450;42.584;23.366;2023-07-20T13:40:53;30.87;35.36
66594;DHT22;53450;42.584;23.366;2023-07-20T13:43:19;30.95;35.90
66594;DHT22;53450;42.584;23.366;2023-07-20T13:45:44;30.90;36.01
66594;DHT22;53450;42.584;23.366;2023-07-20T13:48:10;30.91;36.69
66594;DHT22;53450;42.584;23.366;2023-07-20T13:50:35;31.10;36.93
66594;DHT22;53450;42.584;23.366;2023-07-20T13:53:01;30.90;37.43
66594;DHT22;53450;42.584;23.366;2023-07-20T13:55:28;31.08;37.85
66594;DHT22;53450;42.584;23.366;2023-07-20T13:57:56;31.25;36.93
66594;DHT22;53450;42.584;23.366;2023-07-20T14:00:21;31.11;37.37
66594;DHT22;53450;42.584;23.366;2023-07-20T14:02:47;30.53;37.84
66594;DHT22;53450;42.584;23.366;2023-07-20T14:05:13;30.39;38.51
66594;DHT22;53450;42.584;23.366;2023-07-20T14:07:40;30.46;38.62
66594;DHT22;53450;42.584;23.366;2023-07-20T14:10:07;30.39;38.80
66594;DHT22;53450;42.584;23.366;2023-07-20T14:12:33;30.73;38.97
66594;DHT22;53450;42.584;23.366;2023-07-20T14:15:07;30.55;38.57
66594;DHT22;53450;42.584;23.366;2023-07-20T14:17:33;30.55;38.72
66594;DHT22;53450;42.584;23.366;2023-07-20T14:19:58;30.11;39.78
66594;DHT22;53450;42.584;23.366;2023-07-20T14:22:24;30.44;39.85
66594;DHT22;53450;42.584;23.366;2023-07-20T14:24:49;30.49;38.81
66594;DHT22;53450;42.584;23.366;2023-07-20T14:27:15;30.40;38.86
66594;DHT22;53450;42.584;23.366;2023-07-20T14:29:41;30.46;39.11
66594;DHT22;53450;42.584;23.366;2023-07-20T14:32:09;30.39;37.97
66594;DHT22;53450;42.584;23.366;2023-07-20T14:34:35;30.15;37.57
66594;DHT22;53450;42.584;23.366;2023-07-20T14:37:01;30.16;38.24
66594;DHT22;53450;42.584;23.366;2023-07-20T14:39:27;30.01;38.45
66594;DHT22;53450;42.584;23.366;2023-07-20T14:41:52;29.98;38.66
66594;DHT22;53450;42.584;23.366;2023-07-20T14:44:21;30.08;38.72
66594;DHT22;53450;42.584;23.366;2023-07-20T14:46:46;30.15;38.13
66594;DHT22;53450;42.584;23.366;2023-07-20T14:49:12;29.70;39.26
66594;DHT22;53450;42.584;23.366;2023-07-20T14:51:41;29.74;39.17
66594;DHT22;53450;42.584;23.366;2023-07-20T14:54:12;29.57;39.23
66594;DHT22;53450;42.584;23.366;2023-07-20T14:56:38;29.61;40.10
66594;DHT22;53450;42.584;23.366;2023-07-20T14:59:04;29.67;40.10
66594;DHT22;53450;42.584;23.366;2023-07-20T15:01:39;29.77;40.71
66594;DHT22;53450;42.584;23.366;2023-07-20T15:04:05;29.60;40.42
66594;DHT22;53450;42.584;23.366;2023-07-20T15:06:30;29.34;41.17
66594;DHT22;53450;42.584;23.366;2023-07-20T15:08:57;29.12;42.33
66594;DHT22;53450;42.584;23.366;2023-07-20T15:11:23;29.37;41.64
66594;DHT22;53450;42.584;23.366;2023-07-20T15:13:48;29.34;41.79
66594;DHT22;53450;42.584;23.366;2023-07-20T15:16:14;29.24;41.52
66594;DHT22;53450;42.584;23.366;2023-07-20T15:18:40;29.13;41.87
66594;DHT22;53450;42.584;23.366;2023-07-20T15:21:05;29.04;42.12
66594;DHT22;53450;42.584;23.366;2023-07-20T15:23:31;29.02;42.52
66594;DHT22;53450;42.584;23.366;2023-07-20T15:25:57;29.41;41.98
66594;DHT22;53450;42.584;23.366;2023-07-20T15:28:47;29.35;41.91
66594;DHT22;53450;42.584;23.366;2023-07-20T15:31:13;29.34;41.84
66594;DHT22;53450;42.584;23.366;2023-07-20T15:33:39;28.99;42.81
66594;DHT22;53450;42.584;23.366;2023-07-20T15:36:04;28.99;42.82
66594;DHT22;53450;42.584;23.366;2023-07-20T15:38:40;29.09;42.72
66594;DHT22;53450;42.584;23.366;2023-07-20T15:41:08;29.19;42.88
66594;DHT22;53450;42.584;23.366;2023-07-20T15:43:33;29.24;42.38
66594;DHT22;53450;42.584;23.366;2023-07-20T15:48:48;29.26;42.54